sensor_id;sensor_type;location;lat;lon;timestamp;P1;durP1;ratioP1;P2;durP2;ratioP2
79751;SDS011;69234;47.446;21.636;2023-06-22T00:00:05;3.47;;;3.47;;
79751;SDS011;69234;47.446;21.636;2023-06-22T00:00:42;3.33;;;3.30;;
79751;SDS011;69234;47.446;21.636;2023-06-22T00:01:14;3.10;;;3.07;;
79751;SDS011;69234;47.446;21.636;2023-06-22T00:01:44;3.27;;;3.20;;
79751;SDS011;69234;47.446;21.636;2023-06-22T00:02:15;3.63;;;3.53;;
79751;SDS011;69234;47.446;21.636;2023-06-22T00:02:46;3.60;;;3.53;;
79751;SDS011;69234;47.446;21.636;2023-06-22T00:03:18;3.90;;;3.87;;
79751;SDS011;69234;47.446;21.636;2023-06-22T00:03:50;3.50;;;3.47;;
79751;SDS011;69234;47.446;21.636;2023-06-22T00:04:21;3.50;;;3.50;;
79751;SDS011;69234;47.446;21.636;2023-06-22T00:04:52;3.87;;;3.87;;
79751;SDS011;69234;47.446;21.636;2023-06-22T00:05:23;3.80;;;3.80;;
79751;SDS011;69234;47.446;21.636;2023-06-22T00:05:54;3.47;;;3.47;;
79751;SDS011;69234;47.446;21.636;2023-06-22T00:06:26;3.63;;;3.60;;
79751;SDS011;69234;47.446;21.636;2023-06-22T00:06:57;3.53;;;3.53;;
79751;SDS011;69234;47.446;21.636;2023-06-22T00:07:28;4.00;;;3.97;;
79751;SDS011;69234;47.446;21.636;2023-06-22T00:08:02;4.03;;;4.03;;
79751;SDS011;69234;47.446;21.636;2023-06-22T00:08:35;3.47;;;3.47;;
79751;SDS011;69234;47.446;21.636;2023-06-22T00:09:06;3.67;;;3.63;;
79751;SDS011;69234;47.446;21.636;2023-06-22T00:09:37;3.47;;;3.37;;
79751;SDS011;69234;47.446;21.636;2023-06-22T00:10:08;3.33;;;3.33;;
79751;SDS011;69234;47.446;21.636;2023-06-22T00:10:39;3.60;;;3.57;;
79751;SDS011;69234;47.446;21.636;2023-06-22T00:11:10;3.33;;;3.33;;
79751;SDS011;69234;47.446;21.636;2023-06-22T00:11:42;3.63;;;3.63;;
79751;SDS011;69234;47.446;21.636;2023-06-22T00:12:13;3.70;;;3.70;;
79751;SDS011;69234;47.446;21.636;2023-06-22T00:12:43;3.43;;;3.43;;
79751;SDS011;69234;47.446;21.636;2023-06-22T00:13:14;3.47;;;3.47;;
79751;SDS011;69234;47.446;21.636;2023-06-22T00:13:47;3.57;;;3.57;;
79751;SDS011;69234;47.446;21.636;2023-06-22T00:14:19;3.43;;;3.43;;
79751;SDS011;69234;47.446;21.636;2023-06-22T00:14:50;3.50;;;3.50;;
79751;SDS011;69234;47.446;21.636;2023-06-22T00:15:20;3.57;;;3.57;;
79751;SDS011;69234;47.446;21.636;2023-06-22T00:15:51;3.63;;;3.63;;
79751;SDS011;69234;47.446;21.636;2023-06-22T00:16:22;3.90;;;3.90;;
79751;SDS011;69234;47.446;21.636;2023-06-22T00:16:53;3.77;;;3.77;;
79751;SDS011;69234;47.446;21.636;2023-06-22T00:17:25;3.83;;;3.83;;
79751;SDS011;69234;47.446;21.636;2023-06-22T00:17:56;3.80;;;3.80;;
79751;SDS011;69234;47.446;21.636;2023-06-22T00:18:27;4.00;;;4.00;;
79751;SDS011;69234;47.446;21.636;2023-06-22T00:19:00;3.87;;;3.87;;
79751;SDS011;69234;47.446;21.636;2023-06-22T00:19:33;3.77;;;3.77;;
79751;SDS011;69234;47.446;21.636;2023-06-22T00:20:05;3.40;;;3.40;;
79751;SDS011;69234;47.446;21.636;2023-06-22T00:20:38;3.57;;;3.57;;
79751;SDS011;69234;47.446;21.636;2023-06-22T00:21:09;3.83;;;3.83;;
79751;SDS011;69234;47.446;21.636;2023-06-22T00:21:42;3.47;;;3.47;;
79751;SDS011;69234;47.446;21.636;2023-06-22T00:22:17;3.47;;;3.47;;
79751;SDS011;69234;47.446;21.636;2023-06-22T00:22:48;3.73;;;3.73;;
79751;SDS011;69234;47.446;21.636;2023-06-22T00:23:19;3.67;;;3.67;;
79751;SDS011;69234;47.446;21.636;2023-06-22T00:23:50;3.70;;;3.70;;
79751;SDS011;69234;47.446;21.636;2023-06-22T00:24:21;4.03;;;4.03;;
79751;SDS011;69234;47.446;21.636;2023-06-22T00:24:55;3.77;;;3.77;;
79751;SDS011;69234;47.446;21.636;2023-06-22T00:25:26;3.77;;;3.77;;
79751;SDS011;69234;47.446;21.636;2023-06-22T00:25:57;3.73;;;3.73;;
79751;SDS011;69234;47.446;21.636;2023-06-22T00:26:29;3.63;;;3.60;;
79751;SDS011;69234;47.446;21.636;2023-06-22T00:27:00;3.37;;;3.37;;
79751;SDS011;69234;47.446;21.636;2023-06-22T00:27:31;3.83;;;3.77;;
79751;SDS011;69234;47.446;21.636;2023-06-22T00:28:03;3.30;;;3.30;;
79751;SDS011;69234;47.446;21.636;2023-06-22T00:28:34;3.23;;;3.17;;
79751;SDS011;69234;47.446;21.636;2023-06-22T00:29:05;3.63;;;3.60;;
79751;SDS011;69234;47.446;21.636;2023-06-22T00:29:36;4.03;;;3.97;;
79751;SDS011;69234;47.446;21.636;2023-06-22T00:30:07;3.67;;;3.63;;
79751;SDS011;69234;47.446;21.636;2023-06-22T00:30:39;3.70;;;3.63;;
79751;SDS011;69234;47.446;21.636;2023-06-22T00:31:10;3.93;;;3.83;;
79751;SDS011;69234;47.446;21.636;2023-06-22T00:31:40;4.00;;;3.97;;
79751;SDS011;69234;47.446;21.636;2023-06-22T00:32:11;3.57;;;3.47;;
79751;SDS011;69234;47.446;21.636;2023-06-22T00:32:43;4.03;;;3.93;;
79751;SDS011;69234;47.446;21.636;2023-06-22T00:33:14;4.10;;;4.00;;
79751;SDS011;69234;47.446;21.636;2023-06-22T00:33:46;3.63;;;3.57;;
79751;SDS011;69234;47.446;21.636;2023-06-22T00:34:17;3.73;;;3.67;;
79751;SDS011;69234;47.446;21.636;2023-06-22T00:34:48;3.67;;;3.60;;
79751;SDS011;69234;47.446;21.636;2023-06-22T00:35:19;3.80;;;3.70;;
79751;SDS011;69234;47.446;21.636;2023-06-22T00:35:49;3.70;;;3.63;;
79751;SDS011;69234;47.446;21.636;2023-06-22T00:36:22;3.57;;;3.53;;
79751;SDS011;69234;47.446;21.636;2023-06-22T00:36:54;3.77;;;3.73;;
79751;SDS011;69234;47.446;21.636;2023-06-22T00:37:27;3.90;;;3.87;;
79751;SDS011;69234;47.446;21.636;2023-06-22T00:38:00;3.97;;;3.93;;
79751;SDS011;69234;47.446;21.636;2023-06-22T00:38:31;3.57;;;3.57;;
79751;SDS011;69234;47.446;21.636;2023-06-22T00:39:02;3.57;;;3.53;;
79751;SDS011;69234;47.446;21.636;2023-06-22T00:39:34;3.43;;;3.37;;
79751;SDS011;69234;47.446;21.636;2023-06-22T00:40:05;3.60;;;3.60;;
79751;SDS011;69234;47.446;21.636;2023-06-22T00:40:39;3.80;;;3.77;;
79751;SDS011;69234;47.446;21.636;2023-06-22T00:41:10;3.90;;;3.90;;
79751;SDS011;69234;47.446;21.636;2023-06-22T00:41:41;3.40;;;3.37;;
79751;SDS011;69234;47.446;21.636;2023-06-22T00:42:12;3.67;;;3.67;;
79751;SDS011;69234;47.446;21.636;2023-06-22T00:42:42;3.70;;;3.67;;
79751;SDS011;69234;47.446;21.636;2023-06-22T00:43:13;3.60;;;3.57;;
79751;SDS011;69234;47.446;21.636;2023-06-22T00:43:44;3.73;;;3.70;;
79751;SDS011;69234;47.446;21.636;2023-06-22T00:44:15;4.00;;;3.97;;
79751;SDS011;69234;47.446;21.636;2023-06-22T00:44:46;3.47;;;3.47;;
79751;SDS011;69234;47.446;21.636;2023-06-22T00:45:17;3.50;;;3.50;;
79751;SDS011;69234;47.446;21.636;2023-06-22T00:45:48;3.80;;;3.80;;
79751;SDS011;69234;47.446;21.636;2023-06-22T00:46:21;4.00;;;4.00;;
79751;SDS011;69234;47.446;21.636;2023-06-22T00:46:53;3.47;;;3.47;;
79751;SDS011;69234;47.446;21.636;2023-06-22T00:47:24;3.20;;;3.20;;
79751;SDS011;69234;47.446;21.636;2023-06-22T00:47:56;3.47;;;3.47;;
79751;SDS011;69234;47.446;21.636;2023-06-22T00:48:28;3.80;;;3.80;;
79751;SDS011;69234;47.446;21.636;2023-06-22T00:49:00;3.63;;;3.63;;
79751;SDS011;69234;47.446;21.636;2023-06-22T00:49:32;2.93;;;2.93;;
79751;SDS011;69234;47.446;21.636;2023-06-22T00:50:05;3.07;;;3.07;;
79751;SDS011;69234;47.446;21.636;2023-06-22T00:50:40;3.43;;;3.43;;
79751;SDS011;69234;47.446;21.636;2023-06-22T00:51:11;3.47;;;3.47;;
79751;SDS011;69234;47.446;21.636;2023-06-22T00:51:43;3.33;;;3.33;;
79751;SDS011;69234;47.446;21.636;2023-06-22T00:52:16;3.77;;;3.77;;
79751;SDS011;69234;47.446;21.636;2023-06-22T00:52:51;3.70;;;3.70;;
79751;SDS011;69234;47.446;21.636;2023-06-22T00:53:28;3.60;;;3.60;;
79751;SDS011;69234;47.446;21.636;2023-06-22T00:53:59;3.37;;;3.37;;
79751;SDS011;69234;47.446;21.636;2023-06-22T00:54:30;2.93;;;2.93;;
79751;SDS011;69234;47.446;21.636;2023-06-22T00:55:02;3.47;;;3.47;;
79751;SDS011;69234;47.446;21.636;2023-06-22T00:55:33;3.67;;;3.63;;
79751;SDS011;69234;47.446;21.636;2023-06-22T00:56:09;3.70;;;3.70;;
79751;SDS011;69234;47.446;21.636;2023-06-22T00:56:43;3.10;;;3.10;;
79751;SDS011;69234;47.446;21.636;2023-06-22T00:57:14;3.40;;;3.40;;
79751;SDS011;69234;47.446;21.636;2023-06-22T00:57:46;3.40;;;3.40;;
79751;SDS011;69234;47.446;21.636;2023-06-22T00:58:18;3.23;;;3.20;;
79751;SDS011;69234;47.446;21.636;2023-06-22T00:58:52;3.57;;;3.53;;
79751;SDS011;69234;47.446;21.636;2023-06-22T00:59:24;3.40;;;3.40;;
79751;SDS011;69234;47.446;21.636;2023-06-22T00:59:56;3.27;;;3.23;;
79751;SDS011;69234;47.446;21.636;2023-06-22T01:00:27;3.93;;;3.87;;
79751;SDS011;69234;47.446;21.636;2023-06-22T01:00:58;3.37;;;3.37;;
79751;SDS011;69234;47.446;21.636;2023-06-22T01:01:31;3.33;;;3.23;;
79751;SDS011;69234;47.446;21.636;2023-06-22T01:02:04;3.70;;;3.60;;
79751;SDS011;69234;47.446;21.636;2023-06-22T01:02:35;3.87;;;3.80;;
79751;SDS011;69234;47.446;21.636;2023-06-22T01:03:07;3.70;;;3.67;;
79751;SDS011;69234;47.446;21.636;2023-06-22T01:03:39;3.47;;;3.43;;
79751;SDS011;69234;47.446;21.636;2023-06-22T01:04:09;4.40;;;4.33;;
79751;SDS011;69234;47.446;21.636;2023-06-22T01:04:42;4.03;;;4.00;;
79751;SDS011;69234;47.446;21.636;2023-06-22T01:05:14;3.70;;;3.63;;
79751;SDS011;69234;47.446;21.636;2023-06-22T01:05:46;3.57;;;3.47;;
79751;SDS011;69234;47.446;21.636;2023-06-22T01:06:22;3.67;;;3.57;;
79751;SDS011;69234;47.446;21.636;2023-06-22T01:08:49;4.20;;;4.10;;
79751;SDS011;69234;47.446;21.636;2023-06-22T01:09:30;3.93;;;3.87;;
79751;SDS011;69234;47.446;21.636;2023-06-22T01:10:23;4.40;;;4.30;;
79751;SDS011;69234;47.446;21.636;2023-06-22T01:11:36;4.17;;;4.17;;
79751;SDS011;69234;47.446;21.636;2023-06-22T01:12:15;3.77;;;3.73;;
79751;SDS011;69234;47.446;21.636;2023-06-22T01:12:50;4.40;;;4.33;;
79751;SDS011;69234;47.446;21.636;2023-06-22T01:14:14;4.47;;;4.47;;
79751;SDS011;69234;47.446;21.636;2023-06-22T01:15:18;4.17;;;4.17;;
79751;SDS011;69234;47.446;21.636;2023-06-22T01:16:24;4.07;;;4.07;;
79751;SDS011;69234;47.446;21.636;2023-06-22T01:17:00;4.07;;;4.07;;
79751;SDS011;69234;47.446;21.636;2023-06-22T01:17:32;4.13;;;4.13;;
79751;SDS011;69234;47.446;21.636;2023-06-22T01:18:05;4.50;;;4.50;;
79751;SDS011;69234;47.446;21.636;2023-06-22T01:18:40;4.13;;;4.13;;
79751;SDS011;69234;47.446;21.636;2023-06-22T01:19:26;4.20;;;4.20;;
79751;SDS011;69234;47.446;21.636;2023-06-22T01:20:13;4.07;;;4.07;;
79751;SDS011;69234;47.446;21.636;2023-06-22T01:20:46;4.10;;;4.10;;
79751;SDS011;69234;47.446;21.636;2023-06-22T01:21:19;4.30;;;4.30;;
79751;SDS011;69234;47.446;21.636;2023-06-22T01:21:55;4.20;;;4.20;;
79751;SDS011;69234;47.446;21.636;2023-06-22T01:22:30;4.20;;;4.20;;
79751;SDS011;69234;47.446;21.636;2023-06-22T01:25:12;4.53;;;4.53;;
79751;SDS011;69234;47.446;21.636;2023-06-22T01:29:10;4.50;;;4.47;;
79751;SDS011;69234;47.446;21.636;2023-06-22T01:29:43;4.67;;;4.63;;
79751;SDS011;69234;47.446;21.636;2023-06-22T01:30:16;4.77;;;4.73;;
79751;SDS011;69234;47.446;21.636;2023-06-22T01:30:49;4.77;;;4.77;;
79751;SDS011;69234;47.446;21.636;2023-06-22T01:31:31;4.93;;;4.90;;
79751;SDS011;69234;47.446;21.636;2023-06-22T01:32:05;5.03;;;5.00;;
79751;SDS011;69234;47.446;21.636;2023-06-22T01:32:39;4.73;;;4.67;;
79751;SDS011;69234;47.446;21.636;2023-06-22T01:33:11;4.53;;;4.47;;
79751;SDS011;69234;47.446;21.636;2023-06-22T01:33:47;4.57;;;4.57;;
79751;SDS011;69234;47.446;21.636;2023-06-22T01:34:23;4.90;;;4.90;;
79751;SDS011;69234;47.446;21.636;2023-06-22T01:34:55;4.60;;;4.60;;
79751;SDS011;69234;47.446;21.636;2023-06-22T01:35:30;4.53;;;4.47;;
79751;SDS011;69234;47.446;21.636;2023-06-22T01:36:05;5.10;;;5.00;;
79751;SDS011;69234;47.446;21.636;2023-06-22T01:36:37;4.93;;;4.87;;
79751;SDS011;69234;47.446;21.636;2023-06-22T01:37:11;4.40;;;4.40;;
79751;SDS011;69234;47.446;21.636;2023-06-22T01:37:43;4.70;;;4.63;;
79751;SDS011;69234;47.446;21.636;2023-06-22T01:38:15;4.70;;;4.67;;
79751;SDS011;69234;47.446;21.636;2023-06-22T01:38:47;5.37;;;5.33;;
79751;SDS011;69234;47.446;21.636;2023-06-22T01:39:19;5.37;;;5.27;;
79751;SDS011;69234;47.446;21.636;2023-06-22T01:39:51;5.13;;;5.10;;
79751;SDS011;69234;47.446;21.636;2023-06-22T01:40:26;5.33;;;5.33;;
79751;SDS011;69234;47.446;21.636;2023-06-22T01:41:00;5.37;;;5.33;;
79751;SDS011;69234;47.446;21.636;2023-06-22T01:41:34;5.70;;;5.60;;
79751;SDS011;69234;47.446;21.636;2023-06-22T01:42:07;4.90;;;4.80;;
79751;SDS011;69234;47.446;21.636;2023-06-22T01:42:40;4.33;;;4.27;;
79751;SDS011;69234;47.446;21.636;2023-06-22T01:43:13;4.67;;;4.67;;
79751;SDS011;69234;47.446;21.636;2023-06-22T01:43:44;5.30;;;5.30;;
79751;SDS011;69234;47.446;21.636;2023-06-22T01:44:16;5.37;;;5.37;;
79751;SDS011;69234;47.446;21.636;2023-06-22T01:44:48;5.40;;;5.40;;
79751;SDS011;69234;47.446;21.636;2023-06-22T01:45:19;5.20;;;5.20;;
79751;SDS011;69234;47.446;21.636;2023-06-22T01:45:50;5.50;;;5.50;;
79751;SDS011;69234;47.446;21.636;2023-06-22T01:46:23;5.30;;;5.30;;
79751;SDS011;69234;47.446;21.636;2023-06-22T01:46:54;5.37;;;5.37;;
79751;SDS011;69234;47.446;21.636;2023-06-22T01:47:26;5.70;;;5.70;;
79751;SDS011;69234;47.446;21.636;2023-06-22T01:47:58;5.50;;;5.50;;
79751;SDS011;69234;47.446;21.636;2023-06-22T01:48:31;5.63;;;5.63;;
79751;SDS011;69234;47.446;21.636;2023-06-22T01:49:03;5.63;;;5.63;;
79751;SDS011;69234;47.446;21.636;2023-06-22T01:49:36;5.30;;;5.27;;
79751;SDS011;69234;47.446;21.636;2023-06-22T01:50:09;5.17;;;5.10;;
79751;SDS011;69234;47.446;21.636;2023-06-22T01:50:42;5.30;;;5.27;;
79751;SDS011;69234;47.446;21.636;2023-06-22T01:51:15;5.63;;;5.63;;
79751;SDS011;69234;47.446;21.636;2023-06-22T01:51:46;5.73;;;5.73;;
79751;SDS011;69234;47.446;21.636;2023-06-22T01:52:17;5.13;;;5.13;;
79751;SDS011;69234;47.446;21.636;2023-06-22T01:52:51;5.23;;;5.23;;
79751;SDS011;69234;47.446;21.636;2023-06-22T01:53:22;5.53;;;5.53;;
79751;SDS011;69234;47.446;21.636;2023-06-22T01:53:55;5.57;;;5.57;;
79751;SDS011;69234;47.446;21.636;2023-06-22T01:54:27;5.30;;;5.30;;
79751;SDS011;69234;47.446;21.636;2023-06-22T01:54:58;5.10;;;5.10;;
79751;SDS011;69234;47.446;21.636;2023-06-22T01:55:30;5.23;;;5.23;;
79751;SDS011;69234;47.446;21.636;2023-06-22T01:56:01;6.17;;;6.17;;
79751;SDS011;69234;47.446;21.636;2023-06-22T01:56:33;5.77;;;5.77;;
79751;SDS011;69234;47.446;21.636;2023-06-22T01:57:04;4.97;;;4.97;;
79751;SDS011;69234;47.446;21.636;2023-06-22T01:57:35;5.20;;;5.20;;
79751;SDS011;69234;47.446;21.636;2023-06-22T01:58:08;5.17;;;5.17;;
79751;SDS011;69234;47.446;21.636;2023-06-22T01:58:41;5.23;;;5.23;;
79751;SDS011;69234;47.446;21.636;2023-06-22T02:00:48;5.13;;;5.13;;
79751;SDS011;69234;47.446;21.636;2023-06-22T02:01:31;5.67;;;5.67;;
79751;SDS011;69234;47.446;21.636;2023-06-22T02:02:14;5.67;;;5.67;;
79751;SDS011;69234;47.446;21.636;2023-06-22T02:02:59;5.73;;;5.73;;
79751;SDS011;69234;47.446;21.636;2023-06-22T02:03:50;5.50;;;5.50;;
79751;SDS011;69234;47.446;21.636;2023-06-22T02:04:36;4.93;;;4.87;;
79751;SDS011;69234;47.446;21.636;2023-06-22T02:05:50;5.37;;;5.37;;
79751;SDS011;69234;47.446;21.636;2023-06-22T02:06:30;5.70;;;5.70;;
79751;SDS011;69234;47.446;21.636;2023-06-22T02:07:09;5.33;;;5.33;;
79751;SDS011;69234;47.446;21.636;2023-06-22T02:07:49;5.87;;;5.87;;
79751;SDS011;69234;47.446;21.636;2023-06-22T02:08:30;5.90;;;5.90;;
79751;SDS011;69234;47.446;21.636;2023-06-22T02:09:12;5.90;;;5.90;;
79751;SDS011;69234;47.446;21.636;2023-06-22T02:09:50;5.80;;;5.80;;
79751;SDS011;69234;47.446;21.636;2023-06-22T02:10:25;5.93;;;5.93;;
79751;SDS011;69234;47.446;21.636;2023-06-22T02:11:01;5.67;;;5.67;;
79751;SDS011;69234;47.446;21.636;2023-06-22T02:11:34;5.67;;;5.67;;
79751;SDS011;69234;47.446;21.636;2023-06-22T02:12:07;5.97;;;5.97;;
79751;SDS011;69234;47.446;21.636;2023-06-22T02:12:43;5.83;;;5.83;;
79751;SDS011;69234;47.446;21.636;2023-06-22T02:13:15;5.50;;;5.50;;
79751;SDS011;69234;47.446;21.636;2023-06-22T02:13:47;5.67;;;5.67;;
79751;SDS011;69234;47.446;21.636;2023-06-22T02:14:20;6.13;;;6.13;;
79751;SDS011;69234;47.446;21.636;2023-06-22T02:14:52;5.90;;;5.90;;
79751;SDS011;69234;47.446;21.636;2023-06-22T02:15:24;5.60;;;5.60;;
79751;SDS011;69234;47.446;21.636;2023-06-22T02:15:58;5.70;;;5.70;;
79751;SDS011;69234;47.446;21.636;2023-06-22T02:16:31;6.00;;;6.00;;
79751;SDS011;69234;47.446;21.636;2023-06-22T02:17:03;5.83;;;5.83;;
79751;SDS011;69234;47.446;21.636;2023-06-22T02:17:38;6.43;;;6.43;;
79751;SDS011;69234;47.446;21.636;2023-06-22T02:18:09;6.30;;;6.30;;
79751;SDS011;69234;47.446;21.636;2023-06-22T02:18:47;5.83;;;5.83;;
79751;SDS011;69234;47.446;21.636;2023-06-22T02:19:23;5.77;;;5.77;;
79751;SDS011;69234;47.446;21.636;2023-06-22T02:19:54;5.73;;;5.73;;
79751;SDS011;69234;47.446;21.636;2023-06-22T02:20:25;5.53;;;5.53;;
79751;SDS011;69234;47.446;21.636;2023-06-22T02:20:56;5.67;;;5.67;;
79751;SDS011;69234;47.446;21.636;2023-06-22T02:21:27;5.83;;;5.83;;
79751;SDS011;69234;47.446;21.636;2023-06-22T02:22:00;6.17;;;6.17;;
79751;SDS011;69234;47.446;21.636;2023-06-22T02:22:31;6.07;;;6.07;;
79751;SDS011;69234;47.446;21.636;2023-06-22T02:23:01;6.10;;;6.10;;
79751;SDS011;69234;47.446;21.636;2023-06-22T02:23:32;6.40;;;6.40;;
79751;SDS011;69234;47.446;21.636;2023-06-22T02:24:05;6.27;;;6.27;;
79751;SDS011;69234;47.446;21.636;2023-06-22T02:24:36;6.70;;;6.70;;
79751;SDS011;69234;47.446;21.636;2023-06-22T02:25:07;6.27;;;6.27;;
79751;SDS011;69234;47.446;21.636;2023-06-22T02:25:38;6.17;;;6.17;;
79751;SDS011;69234;47.446;21.636;2023-06-22T02:26:10;5.80;;;5.80;;
79751;SDS011;69234;47.446;21.636;2023-06-22T02:26:41;5.70;;;5.70;;
79751;SDS011;69234;47.446;21.636;2023-06-22T02:27:15;5.90;;;5.90;;
79751;SDS011;69234;47.446;21.636;2023-06-22T02:27:46;5.87;;;5.87;;
79751;SDS011;69234;47.446;21.636;2023-06-22T02:28:17;6.20;;;6.20;;
79751;SDS011;69234;47.446;21.636;2023-06-22T02:28:49;6.47;;;6.47;;
79751;SDS011;69234;47.446;21.636;2023-06-22T02:29:21;6.17;;;6.07;;
79751;SDS011;69234;47.446;21.636;2023-06-22T02:29:52;6.33;;;6.30;;
79751;SDS011;69234;47.446;21.636;2023-06-22T02:30:23;5.80;;;5.80;;
79751;SDS011;69234;47.446;21.636;2023-06-22T02:30:54;6.07;;;6.07;;
79751;SDS011;69234;47.446;21.636;2023-06-22T02:31:24;5.77;;;5.77;;
79751;SDS011;69234;47.446;21.636;2023-06-22T02:32:00;6.10;;;6.10;;
79751;SDS011;69234;47.446;21.636;2023-06-22T02:32:31;6.20;;;6.20;;
79751;SDS011;69234;47.446;21.636;2023-06-22T02:33:04;6.70;;;6.70;;
79751;SDS011;69234;47.446;21.636;2023-06-22T02:33:35;6.43;;;6.43;;
79751;SDS011;69234;47.446;21.636;2023-06-22T02:34:06;6.27;;;6.27;;
79751;SDS011;69234;47.446;21.636;2023-06-22T02:34:37;6.00;;;6.00;;
79751;SDS011;69234;47.446;21.636;2023-06-22T02:35:08;6.17;;;6.17;;
79751;SDS011;69234;47.446;21.636;2023-06-22T02:35:39;6.20;;;6.20;;
79751;SDS011;69234;47.446;21.636;2023-06-22T02:36:15;6.00;;;6.00;;
79751;SDS011;69234;47.446;21.636;2023-06-22T02:36:46;5.77;;;5.77;;
79751;SDS011;69234;47.446;21.636;2023-06-22T02:37:22;6.07;;;6.07;;
79751;SDS011;69234;47.446;21.636;2023-06-22T02:37:55;6.27;;;6.27;;
79751;SDS011;69234;47.446;21.636;2023-06-22T02:38:26;5.97;;;5.97;;
79751;SDS011;69234;47.446;21.636;2023-06-22T02:38:57;5.97;;;5.97;;
79751;SDS011;69234;47.446;21.636;2023-06-22T02:39:31;6.13;;;6.13;;
79751;SDS011;69234;47.446;21.636;2023-06-22T02:40:02;6.23;;;6.23;;
79751;SDS011;69234;47.446;21.636;2023-06-22T02:40:34;6.90;;;6.90;;
79751;SDS011;69234;47.446;21.636;2023-06-22T02:41:05;6.53;;;6.53;;
79751;SDS011;69234;47.446;21.636;2023-06-22T02:41:36;6.53;;;6.53;;
79751;SDS011;69234;47.446;21.636;2023-06-22T02:42:07;6.07;;;6.07;;
79751;SDS011;69234;47.446;21.636;2023-06-22T02:42:40;6.07;;;6.07;;
79751;SDS011;69234;47.446;21.636;2023-06-22T02:43:12;5.97;;;5.97;;
79751;SDS011;69234;47.446;21.636;2023-06-22T02:43:44;6.67;;;6.67;;
79751;SDS011;69234;47.446;21.636;2023-06-22T02:44:15;6.73;;;6.73;;
79751;SDS011;69234;47.446;21.636;2023-06-22T02:44:47;6.73;;;6.73;;
79751;SDS011;69234;47.446;21.636;2023-06-22T02:45:19;7.17;;;7.17;;
79751;SDS011;69234;47.446;21.636;2023-06-22T02:45:50;6.47;;;6.47;;
79751;SDS011;69234;47.446;21.636;2023-06-22T02:46:22;6.07;;;6.07;;
79751;SDS011;69234;47.446;21.636;2023-06-22T02:46:53;6.00;;;6.00;;
79751;SDS011;69234;47.446;21.636;2023-06-22T02:47:25;6.03;;;6.03;;
79751;SDS011;69234;47.446;21.636;2023-06-22T02:47:56;5.70;;;5.70;;
79751;SDS011;69234;47.446;21.636;2023-06-22T02:48:28;6.00;;;6.00;;
79751;SDS011;69234;47.446;21.636;2023-06-22T02:48:59;5.70;;;5.70;;
79751;SDS011;69234;47.446;21.636;2023-06-22T02:49:29;6.27;;;6.27;;
79751;SDS011;69234;47.446;21.636;2023-06-22T02:50:00;6.53;;;6.53;;
79751;SDS011;69234;47.446;21.636;2023-06-22T02:50:32;6.07;;;6.07;;
79751;SDS011;69234;47.446;21.636;2023-06-22T02:51:04;6.33;;;6.33;;
79751;SDS011;69234;47.446;21.636;2023-06-22T02:51:35;6.30;;;6.30;;
79751;SDS011;69234;47.446;21.636;2023-06-22T02:52:09;5.87;;;5.87;;
79751;SDS011;69234;47.446;21.636;2023-06-22T02:52:41;6.40;;;6.30;;
79751;SDS011;69234;47.446;21.636;2023-06-22T02:53:12;6.33;;;6.23;;
79751;SDS011;69234;47.446;21.636;2023-06-22T02:53:47;6.30;;;6.20;;
79751;SDS011;69234;47.446;21.636;2023-06-22T02:54:19;5.57;;;5.57;;
79751;SDS011;69234;47.446;21.636;2023-06-22T02:54:52;6.47;;;6.37;;
79751;SDS011;69234;47.446;21.636;2023-06-22T02:55:23;6.30;;;6.27;;
79751;SDS011;69234;47.446;21.636;2023-06-22T02:56:00;6.40;;;6.40;;
79751;SDS011;69234;47.446;21.636;2023-06-22T02:56:37;6.37;;;6.37;;
79751;SDS011;69234;47.446;21.636;2023-06-22T02:57:08;6.30;;;6.30;;
79751;SDS011;69234;47.446;21.636;2023-06-22T02:57:44;5.97;;;5.93;;
79751;SDS011;69234;47.446;21.636;2023-06-22T02:58:16;6.17;;;6.17;;
79751;SDS011;69234;47.446;21.636;2023-06-22T02:58:47;6.27;;;6.27;;
79751;SDS011;69234;47.446;21.636;2023-06-22T02:59:18;6.07;;;6.03;;
79751;SDS011;69234;47.446;21.636;2023-06-22T02:59:54;6.77;;;6.67;;
79751;SDS011;69234;47.446;21.636;2023-06-22T03:00:25;6.37;;;6.27;;
79751;SDS011;69234;47.446;21.636;2023-06-22T03:01:00;5.90;;;5.87;;
79751;SDS011;69234;47.446;21.636;2023-06-22T03:01:35;6.23;;;6.20;;
79751;SDS011;69234;47.446;21.636;2023-06-22T03:02:18;5.47;;;5.47;;
79751;SDS011;69234;47.446;21.636;2023-06-22T03:02:51;5.97;;;5.97;;
79751;SDS011;69234;47.446;21.636;2023-06-22T03:03:23;6.20;;;6.20;;
79751;SDS011;69234;47.446;21.636;2023-06-22T03:03:56;6.33;;;6.33;;
79751;SDS011;69234;47.446;21.636;2023-06-22T03:04:27;6.07;;;6.03;;
79751;SDS011;69234;47.446;21.636;2023-06-22T03:04:58;6.43;;;6.43;;
79751;SDS011;69234;47.446;21.636;2023-06-22T03:05:31;6.20;;;6.20;;
79751;SDS011;69234;47.446;21.636;2023-06-22T03:06:05;5.90;;;5.90;;
79751;SDS011;69234;47.446;21.636;2023-06-22T03:06:36;6.67;;;6.67;;
79751;SDS011;69234;47.446;21.636;2023-06-22T03:07:10;6.37;;;6.37;;
79751;SDS011;69234;47.446;21.636;2023-06-22T03:07:41;6.27;;;6.27;;
79751;SDS011;69234;47.446;21.636;2023-06-22T03:08:14;6.37;;;6.37;;
79751;SDS011;69234;47.446;21.636;2023-06-22T03:08:45;6.70;;;6.70;;
79751;SDS011;69234;47.446;21.636;2023-06-22T03:09:16;6.73;;;6.73;;
79751;SDS011;69234;47.446;21.636;2023-06-22T03:09:47;6.30;;;6.30;;
79751;SDS011;69234;47.446;21.636;2023-06-22T03:10:18;6.00;;;6.00;;
79751;SDS011;69234;47.446;21.636;2023-06-22T03:10:49;6.40;;;6.40;;
79751;SDS011;69234;47.446;21.636;2023-06-22T03:11:20;6.50;;;6.50;;
79751;SDS011;69234;47.446;21.636;2023-06-22T03:11:51;6.07;;;6.07;;
79751;SDS011;69234;47.446;21.636;2023-06-22T03:12:24;6.00;;;6.00;;
79751;SDS011;69234;47.446;21.636;2023-06-22T03:12:57;6.57;;;6.57;;
79751;SDS011;69234;47.446;21.636;2023-06-22T03:13:28;6.33;;;6.33;;
79751;SDS011;69234;47.446;21.636;2023-06-22T03:14:02;6.17;;;6.17;;
79751;SDS011;69234;47.446;21.636;2023-06-22T03:14:32;6.33;;;6.33;;
79751;SDS011;69234;47.446;21.636;2023-06-22T03:15:05;6.33;;;6.33;;
79751;SDS011;69234;47.446;21.636;2023-06-22T03:15:40;6.20;;;6.20;;
79751;SDS011;69234;47.446;21.636;2023-06-22T03:16:11;6.97;;;6.97;;
79751;SDS011;69234;47.446;21.636;2023-06-22T03:16:42;7.07;;;7.07;;
79751;SDS011;69234;47.446;21.636;2023-06-22T03:17:13;6.17;;;6.17;;
79751;SDS011;69234;47.446;21.636;2023-06-22T03:17:45;6.10;;;6.10;;
79751;SDS011;69234;47.446;21.636;2023-06-22T03:18:16;6.30;;;6.30;;
79751;SDS011;69234;47.446;21.636;2023-06-22T03:18:47;6.17;;;6.17;;
79751;SDS011;69234;47.446;21.636;2023-06-22T03:19:18;5.90;;;5.90;;
79751;SDS011;69234;47.446;21.636;2023-06-22T03:19:50;6.60;;;6.60;;
79751;SDS011;69234;47.446;21.636;2023-06-22T03:20:21;6.50;;;6.50;;
79751;SDS011;69234;47.446;21.636;2023-06-22T03:20:52;6.50;;;6.50;;
79751;SDS011;69234;47.446;21.636;2023-06-22T03:21:23;6.63;;;6.63;;
79751;SDS011;69234;47.446;21.636;2023-06-22T03:21:56;7.20;;;7.20;;
79751;SDS011;69234;47.446;21.636;2023-06-22T03:22:29;6.83;;;6.83;;
79751;SDS011;69234;47.446;21.636;2023-06-22T03:23:00;6.83;;;6.83;;
79751;SDS011;69234;47.446;21.636;2023-06-22T03:23:31;6.73;;;6.73;;
79751;SDS011;69234;47.446;21.636;2023-06-22T03:24:02;6.90;;;6.90;;
79751;SDS011;69234;47.446;21.636;2023-06-22T03:24:34;6.90;;;6.90;;
79751;SDS011;69234;47.446;21.636;2023-06-22T03:25:05;6.63;;;6.63;;
79751;SDS011;69234;47.446;21.636;2023-06-22T03:25:44;6.63;;;6.63;;
79751;SDS011;69234;47.446;21.636;2023-06-22T03:26:18;6.97;;;6.97;;